createdAt,value
2022-11-21T00:00:31.004Z,18.23
2022-11-21T00:03:00.265Z,16.83
2022-11-21T00:05:27.154Z,19.42
2022-11-21T00:07:54.844Z,18.83
2022-11-21T00:10:22.101Z,17.17
2022-11-21T00:12:48.672Z,21.67
2022-11-21T00:15:15.245Z,19.83
2022-11-21T00:17:41.809Z,21.30
2022-11-21T00:20:08.720Z,19.63
2022-11-21T00:22:35.309Z,20.63
2022-11-21T00:25:01.830Z,20.48
2022-11-21T00:27:31.147Z,20.48
2022-11-21T00:29:57.795Z,20.35
2022-11-21T00:32:24.390Z,19.80
2022-11-21T00:34:51.029Z,19.38
2022-11-21T00:37:17.635Z,18.38
2022-11-21T00:39:44.230Z,21.75
2022-11-21T00:42:10.769Z,19.02
2022-11-21T00:44:37.308Z,18.00
2022-11-21T00:47:03.878Z,19.77
2022-11-21T00:49:30.412Z,19.95
2022-11-21T00:51:56.964Z,20.30
2022-11-21T00:54:23.522Z,22.83
2022-11-21T00:56:50.084Z,19.65
2022-11-21T00:59:16.703Z,24.83
2022-11-21T01:01:43.177Z,22.30
2022-11-21T01:04:09.809Z,19.67
2022-11-21T01:06:38.313Z,18.48
2022-11-21T01:09:05.196Z,24.00
2022-11-21T01:11:32.342Z,22.23
2022-11-21T01:13:59.229Z,22.77
2022-11-21T01:16:27.562Z,19.58
2022-11-21T01:18:54.309Z,20.80
2022-11-21T01:21:26.881Z,21.70
2022-11-21T01:23:53.931Z,22.85
2022-11-21T01:26:25.585Z,20.85
2022-11-21T01:28:52.918Z,16.80
2022-11-21T01:31:20.500Z,19.42
2022-11-21T01:33:47.583Z,22.13
2022-11-21T01:36:19.210Z,20.08
2022-11-21T01:38:48.099Z,21.13
2022-11-21T01:41:19.998Z,21.67
2022-11-21T01:43:47.903Z,23.85
2022-11-21T01:46:16.548Z,22.60
2022-11-21T01:49:04.139Z,16.67
2022-11-21T01:51:39.866Z,19.95
2022-11-21T01:54:11.070Z,19.35
2022-11-21T01:56:48.622Z,20.92
2022-11-21T01:59:20.930Z,19.60
2022-11-21T02:01:48.724Z,19.15
2022-11-21T02:04:15.845Z,20.63
2022-11-21T02:06:42.870Z,21.25
2022-11-21T02:09:09.422Z,18.95
2022-11-21T02:11:41.113Z,20.02
2022-11-21T02:14:07.894Z,20.13
2022-11-21T02:16:34.974Z,23.05
2022-11-21T02:19:01.887Z,19.88
2022-11-21T02:21:39.093Z,18.42
2022-11-21T02:24:26.153Z,20.92
2022-11-21T02:26:52.931Z,21.55
2022-11-21T02:29:19.441Z,20.58
2022-11-21T02:31:46.034Z,17.65
2022-11-21T02:34:12.615Z,22.00
2022-11-21T02:36:41.699Z,16.70
2022-11-21T02:39:20.623Z,23.85
2022-11-21T02:41:56.344Z,21.10
2022-11-21T02:44:28.761Z,19.75
2022-11-21T02:46:55.591Z,20.17
2022-11-21T02:49:29.769Z,21.75
2022-11-21T02:51:56.296Z,22.17
2022-11-21T02:54:23.029Z,18.80
2022-11-21T02:56:49.570Z,17.50
2022-11-21T02:59:16.148Z,20.05
2022-11-21T03:01:42.839Z,20.70
2022-11-21T03:04:09.386Z,19.35
2022-11-21T03:06:35.938Z,17.98
2022-11-21T03:09:02.488Z,18.15
2022-11-21T03:11:29.083Z,19.70
2022-11-21T03:13:55.675Z,23.50
2022-11-21T03:16:22.263Z,20.45
2022-11-21T03:18:49.000Z,20.65
2022-11-21T03:21:15.557Z,21.38
2022-11-21T03:23:42.142Z,16.77
2022-11-21T03:26:08.736Z,20.40
2022-11-21T03:28:35.368Z,18.00
2022-11-21T03:31:01.899Z,24.02
2022-11-21T03:33:28.620Z,21.30
2022-11-21T03:35:55.173Z,20.35
2022-11-21T03:38:21.707Z,17.65
2022-11-21T03:40:48.645Z,18.83
2022-11-21T03:43:15.281Z,17.50
2022-11-21T03:45:41.918Z,21.52
2022-11-21T03:48:08.650Z,18.15
2022-11-21T03:50:35.258Z,19.77
2022-11-21T03:53:01.826Z,24.23
2022-11-21T03:55:28.468Z,19.58
2022-11-21T03:57:55.049Z,18.52
2022-11-21T04:00:21.759Z,20.42
2022-11-21T04:02:48.379Z,20.90
2022-11-21T04:05:14.942Z,24.30
2022-11-21T04:07:41.490Z,19.70
2022-11-21T04:10:08.419Z,22.00
2022-11-21T04:12:34.969Z,22.02
2022-11-21T04:15:01.542Z,25.65
2022-11-21T04:17:28.121Z,21.85
2022-11-21T04:19:54.682Z,20.70
2022-11-21T04:22:21.279Z,22.42
2022-11-21T04:24:47.971Z,23.52
2022-11-21T04:27:14.525Z,23.58
2022-11-21T04:29:41.073Z,23.65
2022-11-21T04:32:07.667Z,19.70
2022-11-21T04:34:34.217Z,19.85
2022-11-21T04:37:01.000Z,21.95
2022-11-21T04:39:27.657Z,24.42
2022-11-21T04:41:54.195Z,20.77
2022-11-21T04:44:20.720Z,22.08
2022-11-21T04:46:47.364Z,28.08
2022-11-21T04:49:14.033Z,27.95
2022-11-21T04:51:40.675Z,21.90
2022-11-21T04:54:07.289Z,21.10
2022-11-21T04:56:33.820Z,22.63
2022-11-21T04:59:00.412Z,17.50
2022-11-21T05:01:27.046Z,23.60
2022-11-21T05:03:53.839Z,23.67
2022-11-21T05:06:20.386Z,22.35
2022-11-21T05:08:51.738Z,24.70
2022-11-21T05:11:38.143Z,24.45
2022-11-21T05:14:04.744Z,23.98
2022-11-21T05:16:33.316Z,27.17
2022-11-21T05:18:59.828Z,21.52
2022-11-21T05:21:26.415Z,21.77
2022-11-21T05:23:52.974Z,24.15
2022-11-21T05:26:19.624Z,23.55
2022-11-21T05:28:47.765Z,23.35
2022-11-21T05:31:14.297Z,20.92
2022-11-21T05:33:40.887Z,21.45
2022-11-21T05:36:07.524Z,22.27
2022-11-21T05:38:34.038Z,21.63
2022-11-21T05:41:00.566Z,21.70
2022-11-21T05:43:45.664Z,24.33
2022-11-21T05:46:13.758Z,23.20
2022-11-21T05:48:41.008Z,24.30
2022-11-21T05:51:07.906Z,24.00
2022-11-21T05:53:35.157Z,22.95
2022-11-21T05:56:06.144Z,24.38
2022-11-21T05:58:33.257Z,32.22
2022-11-21T06:01:00.567Z,19.27
2022-11-21T06:03:28.730Z,25.98
2022-11-21T06:06:03.059Z,23.95
2022-11-21T06:08:30.767Z,21.45
2022-11-21T06:10:57.717Z,24.23
2022-11-21T06:13:24.406Z,19.40
2022-11-21T06:16:01.978Z,22.48
2022-11-21T06:18:30.796Z,24.33
2022-11-21T06:21:05.249Z,22.55
2022-11-21T06:23:35.891Z,20.98
2022-11-21T06:26:04.964Z,20.98
2022-11-21T06:28:36.793Z,24.02
2022-11-21T06:31:07.781Z,23.77
2022-11-21T06:33:35.224Z,26.77
2022-11-21T06:36:06.442Z,24.42
2022-11-21T06:38:33.493Z,27.10
2022-11-21T06:41:17.495Z,27.48
2022-11-21T06:43:44.973Z,28.10
2022-11-21T06:46:11.669Z,29.33
2022-11-21T06:48:39.289Z,27.38
2022-11-21T06:51:06.747Z,28.42
2022-11-21T06:53:34.498Z,28.52
2022-11-21T06:56:02.181Z,26.90
2022-11-21T06:58:29.343Z,27.02
2022-11-21T07:00:56.516Z,22.30
2022-11-21T07:03:23.480Z,26.50
2022-11-21T07:05:50.880Z,30.75
2022-11-21T07:08:17.416Z,25.65
2022-11-21T07:11:03.324Z,24.52
2022-11-21T07:13:30.739Z,23.50
2022-11-21T07:16:02.242Z,22.83
2022-11-21T07:18:29.361Z,22.77
2022-11-21T07:21:00.303Z,26.13
2022-11-21T07:23:27.276Z,23.25
2022-11-21T07:25:54.012Z,25.88
2022-11-21T07:28:20.750Z,22.70
2022-11-21T07:30:47.328Z,25.55
2022-11-21T07:33:13.871Z,27.00
2022-11-21T07:35:40.409Z,23.35
2022-11-21T07:38:06.968Z,25.95
2022-11-21T07:40:34.790Z,31.42
2022-11-21T07:43:10.706Z,28.90
2022-11-21T07:45:38.257Z,28.13
2022-11-21T07:48:06.784Z,28.88
2022-11-21T07:50:33.696Z,34.50
2022-11-21T07:53:02.343Z,33.00
2022-11-21T07:55:35.161Z,36.38
2022-11-21T07:58:13.417Z,33.88
2022-11-21T08:00:43.095Z,32.45
2022-11-21T08:03:12.059Z,28.42
2022-11-21T08:05:40.362Z,36.40
2022-11-21T08:08:07.253Z,32.78
2022-11-21T08:10:34.330Z,34.50
2022-11-21T08:13:00.916Z,38.55
2022-11-21T08:15:27.705Z,34.53
2022-11-21T08:17:54.244Z,37.45
2022-11-21T08:20:20.780Z,42.08
2022-11-21T08:22:47.468Z,36.42
2022-11-21T08:25:14.110Z,38.55
2022-11-21T08:27:42.246Z,35.70
2022-11-21T08:30:11.074Z,37.33
2022-11-21T08:32:37.898Z,38.83
2022-11-21T08:35:05.037Z,35.95
2022-11-21T08:37:31.566Z,42.72
2022-11-21T08:40:02.448Z,31.58
2022-11-21T08:42:29.073Z,34.72
2022-11-21T08:44:55.639Z,31.25
2022-11-21T08:47:22.317Z,33.25
2022-11-21T08:49:49.118Z,36.13
2022-11-21T08:52:17.510Z,38.42
2022-11-21T08:54:45.194Z,36.65
2022-11-21T08:57:12.669Z,30.52
2022-11-21T08:59:39.280Z,28.77
2022-11-21T09:02:06.037Z,28.63
2022-11-21T09:04:33.009Z,25.02
2022-11-21T09:06:59.827Z,29.45
2022-11-21T09:09:26.379Z,24.80
2022-11-21T09:11:53.093Z,23.38
2022-11-21T09:14:38.027Z,23.75
2022-11-21T09:17:23.387Z,25.90
2022-11-21T09:19:49.904Z,26.80
2022-11-21T09:22:16.509Z,23.40
2022-11-21T09:24:43.118Z,26.35
2022-11-21T09:27:09.704Z,23.50
2022-11-21T09:29:36.224Z,26.08
2022-11-21T09:32:02.954Z,22.25
2022-11-21T09:34:31.757Z,24.38
2022-11-21T09:36:58.541Z,18.42
2022-11-21T09:39:25.746Z,16.08
2022-11-21T09:42:21.662Z,20.52
2022-11-21T09:45:00.197Z,18.83
2022-11-21T09:47:32.044Z,20.13
2022-11-21T09:50:06.384Z,18.33
2022-11-21T09:52:54.704Z,23.23
2022-11-21T09:55:29.388Z,16.90
2022-11-21T09:57:56.593Z,18.23
2022-11-21T10:00:25.048Z,15.80
2022-11-21T10:02:52.348Z,15.98
2022-11-21T10:05:26.149Z,16.40
2022-11-21T10:07:54.431Z,15.82
2022-11-21T10:10:51.352Z,17.38
2022-11-21T10:13:33.137Z,15.05
2022-11-21T10:16:18.929Z,11.63
2022-11-21T10:18:51.502Z,13.88
2022-11-21T10:21:42.137Z,17.83
2022-11-21T10:24:35.227Z,14.68
2022-11-21T10:27:26.645Z,19.13
2022-11-21T10:30:05.784Z,14.90
2022-11-21T10:32:41.217Z,16.95
2022-11-21T10:35:19.568Z,16.33
2022-11-21T10:37:50.310Z,19.38
2022-11-21T10:40:19.612Z,14.40
2022-11-21T10:43:27.531Z,13.65
2022-11-21T10:45:54.632Z,18.17
2022-11-21T10:48:21.197Z,15.63
2022-11-21T10:51:05.856Z,13.95
2022-11-21T10:53:51.131Z,11.35
2022-11-21T10:56:19.928Z,15.02
2022-11-21T10:58:48.781Z,12.60
2022-11-21T11:01:35.042Z,12.05
2022-11-21T11:04:27.239Z,18.13
2022-11-21T11:06:54.937Z,14.75
2022-11-21T11:09:32.411Z,13.07
2022-11-21T11:12:46.730Z,14.93
2022-11-21T11:15:22.152Z,10.60
2022-11-21T11:17:56.979Z,14.23
2022-11-21T11:20:44.983Z,17.48
2022-11-21T11:23:20.282Z,16.55
2022-11-21T11:25:55.925Z,12.95
2022-11-21T11:28:25.779Z,12.95
2022-11-21T11:30:57.148Z,12.18
2022-11-21T11:33:53.309Z,11.15
2022-11-21T11:36:31.825Z,10.82
2022-11-21T11:38:59.670Z,10.85
2022-11-21T11:42:02.487Z,12.13
2022-11-21T11:45:12.547Z,12.27
2022-11-21T11:47:48.940Z,10.35
2022-11-21T11:50:44.357Z,11.18
2022-11-21T11:53:18.845Z,10.32
2022-11-21T11:55:50.068Z,13.75
2022-11-21T11:58:22.323Z,11.80
2022-11-21T12:01:03.076Z,13.55
2022-11-21T12:03:38.436Z,10.05
2022-11-21T12:06:21.598Z,10.70
2022-11-21T12:09:15.154Z,11.82
2022-11-21T12:12:09.185Z,10.40
2022-11-21T12:15:20.672Z,11.80
2022-11-21T12:17:54.109Z,11.95
2022-11-21T12:20:24.503Z,16.80
2022-11-21T12:22:52.277Z,15.80
2022-11-21T12:25:22.287Z,16.88
2022-11-21T12:27:52.958Z,14.27
2022-11-21T12:30:34.844Z,15.27
2022-11-21T12:33:08.912Z,17.25
2022-11-21T12:35:50.824Z,16.70
2022-11-21T12:38:26.913Z,14.05
2022-11-21T12:40:53.479Z,18.27
2022-11-21T12:43:43.392Z,18.10
2022-11-21T12:46:59.599Z,23.05
2022-11-21T12:50:13.336Z,13.77
2022-11-21T12:53:00.551Z,17.10
2022-11-21T12:55:37.681Z,18.35
2022-11-21T12:58:32.716Z,18.13
2022-11-21T13:01:15.504Z,20.17
2022-11-21T13:04:00.143Z,17.27
2022-11-21T13:06:29.187Z,17.50
2022-11-21T13:08:57.536Z,14.75
2022-11-21T13:11:59.889Z,18.35
2022-11-21T13:14:36.620Z,21.45
2022-11-21T13:17:32.361Z,17.90
2022-11-21T13:20:17.376Z,18.92
2022-11-21T13:22:44.390Z,18.65
2022-11-21T13:25:30.141Z,15.15
2022-11-21T13:28:19.336Z,15.98
2022-11-21T13:30:49.292Z,14.85
2022-11-21T13:33:37.802Z,17.55
2022-11-21T13:36:07.951Z,14.05
2022-11-21T13:38:53.016Z,12.85
2022-11-21T13:41:53.174Z,17.30
2022-11-21T13:44:32.010Z,16.60
2022-11-21T13:47:20.176Z,17.55
2022-11-21T13:49:55.628Z,16.52
2022-11-21T13:52:25.486Z,13.25
2022-11-21T13:55:03.553Z,17.30
2022-11-21T13:57:36.290Z,17.05
2022-11-21T14:00:23.570Z,12.43
2022-11-21T14:03:11.277Z,14.45
2022-11-21T14:05:47.785Z,14.40
2022-11-21T14:08:19.704Z,11.30
2022-11-21T14:10:47.685Z,15.18
2022-11-21T14:13:29.478Z,16.48
2022-11-21T14:16:18.675Z,15.75
2022-11-21T14:18:47.119Z,12.85
2022-11-21T14:21:27.295Z,15.98
2022-11-21T14:23:57.397Z,13.55
2022-11-21T14:26:25.479Z,16.85
2022-11-21T14:28:52.660Z,16.65
2022-11-21T14:31:19.430Z,14.07
2022-11-21T14:33:47.558Z,15.63
2022-11-21T14:36:21.959Z,16.17
2022-11-21T14:39:20.875Z,12.68
2022-11-21T14:41:40.536Z,16.58
2022-11-21T14:44:15.656Z,13.85
2022-11-21T14:46:43.325Z,16.10
2022-11-21T14:49:12.994Z,16.27
2022-11-21T14:51:40.806Z,15.85
2022-11-21T14:54:13.799Z,15.32
2022-11-21T14:56:41.062Z,14.13
2022-11-21T14:59:14.019Z,14.18
2022-11-21T15:01:46.207Z,15.82
2022-11-21T15:04:15.231Z,15.25
2022-11-21T15:06:44.121Z,14.80
2022-11-21T15:12:04.012Z,15.50
2022-11-21T15:14:39.456Z,17.02
2022-11-21T15:17:09.329Z,16.10
2022-11-21T15:19:35.910Z,15.13
2022-11-21T15:22:04.672Z,20.42
2022-11-21T15:24:42.649Z,19.83
2022-11-21T15:27:27.723Z,16.60
2022-11-21T15:30:21.510Z,17.17
2022-11-21T15:33:12.421Z,17.73
2022-11-21T15:35:42.322Z,14.40
2022-11-21T15:38:16.957Z,17.95
2022-11-21T15:41:22.417Z,18.65
2022-11-21T15:44:02.105Z,13.82
2022-11-21T15:46:31.257Z,18.48
2022-11-21T15:48:58.661Z,19.27
2022-11-21T15:54:19.348Z,18.95
2022-11-21T15:56:47.329Z,19.13
2022-11-21T15:57:12.842Z,15.52
2022-11-21T15:59:14.497Z,19.42
2022-11-21T16:01:41.363Z,17.92
2022-11-21T16:04:09.940Z,14.82
2022-11-21T16:06:37.226Z,19.70
2022-11-21T16:09:04.220Z,19.10
2022-11-21T16:11:32.738Z,16.95
2022-11-21T16:14:03.790Z,18.23
2022-11-21T16:16:33.900Z,18.20
2022-11-21T16:19:00.555Z,17.73
2022-11-21T16:21:27.241Z,19.23
2022-11-21T16:23:54.801Z,17.98
2022-11-21T16:26:22.338Z,19.73
2022-11-21T16:28:48.879Z,14.25
2022-11-21T16:31:26.321Z,21.00
2022-11-21T16:33:53.189Z,17.27
2022-11-21T16:36:24.550Z,18.67
2022-11-21T16:38:51.406Z,18.83
2022-11-21T16:41:19.546Z,17.48
2022-11-21T16:43:49.560Z,18.70
2022-11-21T16:46:17.213Z,18.90
2022-11-21T16:48:43.897Z,19.15
2022-11-21T16:51:20.433Z,20.17
2022-11-21T16:53:48.409Z,19.33
2022-11-21T16:56:15.755Z,18.63
2022-11-21T16:58:42.679Z,21.08
2022-11-21T17:01:11.113Z,21.38
2022-11-21T17:03:42.150Z,19.38
2022-11-21T17:06:09.824Z,19.38
2022-11-21T17:08:37.186Z,20.92
2022-11-21T17:11:16.295Z,17.63
2022-11-21T17:13:44.058Z,21.67
2022-11-21T17:16:11.620Z,19.38
2022-11-21T17:18:38.832Z,20.35
2022-11-21T17:21:07.267Z,18.33
2022-11-21T17:23:35.017Z,18.90
2022-11-21T17:26:09.246Z,23.17
2022-11-21T17:28:37.257Z,19.23
2022-11-21T17:31:11.411Z,19.65
2022-11-21T17:33:38.299Z,21.10
2022-11-21T17:36:06.608Z,21.45
2022-11-21T17:38:33.863Z,18.00
2022-11-21T17:41:05.314Z,19.23
2022-11-21T17:43:32.531Z,18.60
2022-11-21T17:46:09.270Z,19.55
2022-11-21T17:48:37.247Z,18.48
2022-11-21T17:51:16.941Z,23.15
2022-11-21T17:53:45.023Z,21.35
2022-11-21T17:56:15.173Z,21.35
2022-11-21T17:58:42.156Z,23.15
2022-11-21T18:01:13.897Z,21.38
2022-11-21T18:03:40.877Z,22.10
2022-11-21T18:06:12.616Z,24.05
2022-11-21T18:08:41.133Z,22.48
2022-11-21T18:11:09.781Z,24.85
2022-11-21T18:13:36.684Z,25.00
2022-11-21T18:16:13.945Z,21.38
2022-11-21T18:18:41.324Z,22.17
2022-11-21T18:21:12.757Z,25.50
2022-11-21T18:23:39.664Z,24.45
2022-11-21T18:26:15.337Z,25.85
2022-11-21T18:28:42.320Z,22.77
2022-11-21T18:31:13.913Z,26.35
2022-11-21T18:33:41.498Z,28.90
2022-11-21T18:36:09.237Z,23.60
2022-11-21T18:38:48.689Z,25.08
2022-11-21T18:41:17.895Z,24.80
2022-11-21T18:43:48.772Z,23.65
2022-11-21T18:46:15.525Z,21.42
2022-11-21T18:49:02.161Z,25.10
2022-11-21T18:51:32.103Z,20.85
2022-11-21T18:54:03.289Z,22.40
2022-11-21T18:56:30.114Z,22.77
2022-11-21T18:58:58.859Z,23.35
2022-11-21T19:01:28.016Z,25.33
2022-11-21T19:03:58.199Z,24.90
2022-11-21T19:06:29.110Z,23.35
2022-11-21T19:08:57.359Z,27.65
2022-11-21T19:11:26.356Z,26.13
2022-11-21T19:13:53.976Z,24.40
2022-11-21T19:16:24.460Z,23.80
2022-11-21T19:19:12.063Z,21.17
2022-11-21T19:21:39.373Z,19.65
2022-11-21T19:24:07.005Z,23.42
2022-11-21T19:26:33.889Z,24.10
2022-11-21T19:29:00.765Z,22.80
2022-11-21T19:31:27.637Z,21.02
2022-11-21T19:33:54.180Z,22.67
2022-11-21T19:36:22.579Z,23.48
2022-11-21T19:38:51.179Z,21.52
2022-11-21T19:41:23.010Z,23.30
2022-11-21T19:43:51.399Z,23.48
2022-11-21T19:46:19.963Z,23.58
2022-11-21T19:48:50.760Z,20.42
2022-11-21T19:51:17.640Z,25.27
2022-11-21T19:53:44.404Z,22.92
2022-11-21T19:56:21.665Z,19.70
2022-11-21T19:58:48.918Z,21.80
2022-11-21T20:01:20.904Z,19.42
2022-11-21T20:03:49.262Z,21.75
2022-11-21T20:06:21.223Z,21.13
2022-11-21T20:08:51.751Z,22.52
2022-11-21T20:11:18.247Z,21.25
2022-11-21T20:13:45.699Z,18.67
2022-11-21T20:16:21.250Z,22.40
2022-11-21T20:18:48.539Z,21.10
2022-11-21T20:21:16.772Z,20.95
2022-11-21T20:23:43.591Z,17.25
2022-11-21T20:26:10.407Z,20.15
2022-11-21T20:28:37.128Z,20.83
2022-11-21T20:31:11.110Z,20.25
2022-11-21T20:33:42.478Z,16.52
2022-11-21T20:36:18.827Z,17.85
2022-11-21T20:38:50.393Z,16.58
2022-11-21T20:41:17.236Z,14.68
2022-11-21T20:44:26.776Z,17.27
2022-11-21T20:46:30.587Z,15.57
2022-11-21T20:48:57.840Z,19.45
2022-11-21T20:54:11.190Z,17.90
2022-11-21T20:56:39.387Z,15.45
2022-11-21T20:59:11.681Z,16.73
2022-11-21T21:01:38.231Z,13.40
2022-11-21T21:04:04.882Z,17.00
2022-11-21T21:06:31.821Z,13.68
2022-11-21T21:08:58.337Z,13.85
2022-11-21T21:14:12.196Z,17.08
2022-11-21T21:16:38.858Z,16.40
2022-11-21T21:19:05.523Z,13.60
2022-11-21T21:21:32.107Z,13.35
2022-11-21T21:24:06.671Z,14.05
2022-11-21T21:26:41.821Z,14.15
2022-11-21T21:29:14.758Z,16.13
2022-11-21T21:31:49.583Z,12.38
2022-11-21T21:34:17.583Z,12.35
2022-11-21T21:36:44.143Z,16.55
2022-11-21T21:39:10.894Z,12.00
2022-11-21T21:41:40.275Z,13.13
2022-11-21T21:44:07.698Z,13.25
2022-11-21T21:46:34.206Z,10.73
2022-11-21T21:49:00.909Z,12.90
2022-11-21T21:51:29.480Z,12.10
2022-11-21T21:53:57.417Z,15.45
2022-11-21T21:56:25.717Z,13.32
2022-11-21T21:58:52.537Z,10.57
2022-11-21T22:01:27.395Z,11.70
2022-11-21T22:03:55.935Z,13.32
2022-11-21T22:06:22.874Z,11.52
2022-11-21T22:08:49.970Z,13.48
2022-11-21T22:11:27.307Z,14.10
2022-11-21T22:13:56.814Z,16.27
2022-11-21T22:16:23.519Z,15.90
2022-11-21T22:18:50.291Z,11.77
2022-11-21T22:21:18.021Z,19.58
2022-11-21T22:24:03.009Z,16.13
2022-11-21T22:26:32.087Z,11.23
2022-11-21T22:28:58.698Z,12.68
2022-11-21T22:31:25.278Z,12.00
2022-11-21T22:33:52.487Z,14.80
2022-11-21T22:36:19.455Z,15.18
2022-11-21T22:38:46.258Z,14.52
2022-11-21T22:41:21.106Z,13.45
2022-11-21T22:43:59.124Z,14.55
2022-11-21T22:46:27.823Z,16.00
2022-11-21T22:48:54.492Z,15.13
2022-11-21T22:51:23.555Z,17.95
2022-11-21T22:53:50.868Z,19.98
2022-11-21T22:56:19.677Z,18.30
2022-11-21T22:58:46.822Z,14.10
2022-11-21T23:01:15.819Z,18.70
2022-11-21T23:03:42.881Z,20.92
2022-11-21T23:06:14.352Z,19.77
2022-11-21T23:08:41.457Z,16.52
2022-11-21T23:11:19.257Z,18.00
2022-11-21T23:13:48.356Z,16.98
2022-11-21T23:16:15.928Z,17.63
2022-11-21T23:18:42.803Z,16.98
2022-11-21T23:21:10.224Z,13.30
2022-11-21T23:23:36.938Z,14.30
2022-11-21T23:26:03.849Z,16.50
2022-11-21T23:28:30.759Z,15.25
2022-11-21T23:31:00.083Z,17.20
2022-11-21T23:33:26.821Z,15.50
2022-11-21T23:35:53.776Z,15.88
2022-11-21T23:38:21.928Z,18.98
2022-11-21T23:40:49.177Z,15.02
2022-11-21T23:43:17.041Z,16.08
2022-11-21T23:45:45.358Z,17.50
2022-11-21T23:48:11.960Z,19.98
2022-11-21T23:50:38.881Z,16.83
2022-11-21T23:53:05.520Z,18.77
2022-11-21T23:55:32.425Z,17.35
2022-11-21T23:58:02.138Z,19.58
